Historique des stations

Station météo de Mainvilliers

Altitude de la station : 298 m







Données météorologiques pour le 26/05/2022
Date
Heure
Températures Humidité Point de rosée Vitesse
du vent
Direction Rafales Windchill Pression Pluviométrie
Cumul
Date
Heure
Températures Humidité Point de rosée Vitesse
du vent
Direction Rafales Windchill Pression Pluviométrie
Cumul
26/05/2022 13:1518.5 °C68 %12.2 °C3 km/hO24 km/h18.3 1027 hPa-
26/05/2022 13:0317.5 °C70 %12.2 °C2 km/hO13 km/h17.8 1027 hPa-
26/05/2022 13:0017.6 °C69 %11.7 °C8 km/hONO24 km/h17.8 1027 hPa-
26/05/2022 12:5017.4 °C71 %12.2 °C3 km/hO14 km/h17.2 1027 hPa-
26/05/2022 12:4517.4 °C72 %12.2 °C8 km/hNO24 km/h17.2 1027 hPa-
26/05/2022 12:3317.2 °C71 %11.7 °C3 km/hO11 km/h17.2 1027 hPa-
26/05/2022 12:3017.3 °C71 %12.2 °C6 km/hOSO24 km/h17.2 1027 hPa-
26/05/2022 12:1817.4 °C71 %12.2 °C5 km/hNNO13 km/h17.2 1027 hPa-
26/05/2022 12:1517.1 °C72 %12.2 °C6 km/hOSO24 km/h17.2 1027 hPa-
26/05/2022 12:0316.8 °C72 %11.7 °C10 km/hSO16 km/h16.7 1027 hPa-
26/05/2022 12:0016.9 °C75 %12.2 °C8 km/hSO24 km/h16.7 1027 hPa-
26/05/2022 11:5016.1 °C76 %11.7 °C10 km/hOSO14 km/h16.1 1027 hPa-
26/05/2022 11:4515.9 °C76 %11.7 °C5 km/hOSO24 km/h16.1 1027 hPa-
26/05/2022 11:3316.2 °C75 %11.7 °C2 km/hSO16 km/h16.1 1026 hPa-
26/05/2022 11:3016.3 °C75 %11.7 °C18 km/hOSO24 km/h14.4 1026 hPa-
26/05/2022 11:1815.7 °C78 %11.7 °C8 km/hSO13 km/h15.6 1026 hPa-
26/05/2022 11:1515.6 °C78 %11.7 °C6 km/hO24 km/h15.6 1026 hPa-
26/05/2022 11:0315.6 °C77 %11.7 °C6 km/hSO18 km/h15.6 1026 hPa-
26/05/2022 11:0015.3 °C78 %11.7 °C6 km/hONO24 km/h15.6 1026 hPa-
26/05/2022 10:5015.7 °C77 %11.7 °C8 km/hSSO14 km/h15.6 1026 hPa-
26/05/2022 10:4515.5 °C78 %11.7 °C10 km/hSO24 km/h15.0 1026 hPa-
26/05/2022 10:3315.6 °C77 %11.7 °C13 km/hSO18 km/h14.4 1026 hPa-
26/05/2022 10:3015.4 °C78 %11.7 °C6 km/hOSO24 km/h15.6 1026 hPa-
26/05/2022 10:1814.8 °C80 %11.7 °C10 km/hOSO18 km/h14.4 1026 hPa-
26/05/2022 10:1514.7 °C80 %11.1 °C8 km/hOSO24 km/h14.4 1026 hPa-
26/05/2022 10:0314.8 °C81 %11.7 °C5 km/hSO24 km/h15.0 1026 hPa-
26/05/2022 10:0014.8 °C79 %11.1 °C14 km/hSSO23 km/h13.3 1026 hPa-
26/05/2022 09:4815.1 °C82 %12.2 °C11 km/hSO18 km/h14.4 1026 hPa-
26/05/2022 09:4514.7 °C82 %11.7 °C5 km/hOSO21 km/h15.0 1026 hPa-
26/05/2022 09:3314.0 °C87 %11.7 °C13 km/hOSO16 km/h12.8 1026 hPa-
26/05/2022 09:3013.6 °C88 %11.7 °C3 km/hOSO21 km/h13.9 1026 hPa-
26/05/2022 09:1813.5 °C87 %11.7 °C10 km/hSO21 km/h12.8 1026 hPa-
26/05/2022 09:1513.8 °C88 %11.7 °C6 km/hOSO21 km/h13.9 1026 hPa-
26/05/2022 09:0313.3 °C89 %11.7 °C6 km/hOSO16 km/h13.3 1026 hPa-
26/05/2022 09:0013.3 °C90 %11.7 °C5 km/hSSO21 km/h13.3 1026 hPa-
26/05/2022 08:4813.2 °C91 %11.7 °C6 km/hSSO11 km/h13.3 1025 hPa-
26/05/2022 08:4513.3 °C91 %11.7 °C10 km/hSO21 km/h12.8 1025 hPa-
26/05/2022 08:3312.8 °C92 %11.7 °C5 km/hSO13 km/h12.8 1025 hPa-
26/05/2022 08:3012.8 °C92 %11.7 °C8 km/hSO21 km/h12.2 1025 hPa-
26/05/2022 08:1812.6 °C92 %11.1 °C2 km/hSO14 km/h12.8 1025 hPa-
26/05/2022 08:1512.6 °C92 %11.7 °C6 km/hSO21 km/h12.8 1025 hPa-
26/05/2022 08:0312.5 °C92 %11.1 °C8 km/hSO18 km/h12.2 1025 hPa-
26/05/2022 08:0012.4 °C92 %11.1 °C3 km/hSO21 km/h12.2 1025 hPa-
26/05/2022 07:4812.3 °C92 %11.1 °C10 km/hO14 km/h11.1 1025 hPa-
26/05/2022 07:4512.3 °C92 %11.1 °C2 km/hONO21 km/h12.2 1025 hPa-
26/05/2022 07:3312.2 °C92 %11.1 °C5 km/hO21 km/h12.2 1025 hPa-
26/05/2022 07:3012.2 °C92 %11.1 °C6 km/hO21 km/h12.2 1025 hPa-
26/05/2022 07:1812.1 °C92 %11.1 °C5 km/hOSO14 km/h12.2 1025 hPa-
26/05/2022 07:1512.2 °C92 %11.1 °C-OSO21 km/h12.2 1025 hPa-
26/05/2022 07:0312.4 °C91 %11.1 °C11 km/hO16 km/h11.1 1025 hPa-
26/05/2022 07:0012.9 °C91 %11.7 °C3 km/hONO21 km/h12.8 1025 hPa-
26/05/2022 06:4812.7 °C91 %11.1 °C5 km/hONO10 km/h12.8 1024 hPa-
26/05/2022 06:4512.7 °C91 %11.1 °C3 km/hO21 km/h12.8 1024 hPa-
26/05/2022 06:3312.7 °C91 %11.1 °C2 km/hO11 km/h12.8 1024 hPa-
26/05/2022 06:3012.6 °C91 %11.1 °C2 km/hO21 km/h12.8 1024 hPa-
26/05/2022 06:1812.6 °C91 %11.1 °C3 km/hO8 km/h12.8 1024 hPa-
26/05/2022 06:1512.6 °C91 %11.1 °C3 km/hO21 km/h12.8 1024 hPa-
26/05/2022 06:0312.6 °C91 %11.1 °C3 km/hO6 km/h12.8 1024 hPa-
26/05/2022 06:0012.6 °C91 %11.1 °C5 km/hO21 km/h12.8 1024 hPa-
26/05/2022 05:4812.7 °C91 %11.1 °C2 km/hO11 km/h12.8 1024 hPa-
26/05/2022 05:4512.7 °C91 %11.1 °C2 km/hO21 km/h12.8 1024 hPa-
26/05/2022 05:3312.8 °C91 %11.7 °C2 km/hOSO10 km/h12.8 1024 hPa-
26/05/2022 05:3012.8 °C90 %11.1 °C5 km/hOSO21 km/h12.8 1024 hPa-
26/05/2022 05:1812.9 °C90 %11.1 °C5 km/hO10 km/h12.8 1024 hPa-
26/05/2022 05:1512.9 °C90 %11.7 °C3 km/hO21 km/h12.8 1024 hPa-
26/05/2022 05:0312.9 °C89 %11.1 °C3 km/hO16 km/h12.8 1024 hPa-
26/05/2022 05:0012.9 °C89 %11.1 °C5 km/hOSO21 km/h12.8 1024 hPa-
26/05/2022 04:4812.9 °C90 %11.7 °C13 km/hOSO19 km/h11.1 1024 hPa-
26/05/2022 04:4513.0 °C90 %11.7 °C13 km/hOSO21 km/h11.1 1024 hPa-
26/05/2022 04:3313.2 °C91 %11.7 °C8 km/hSO10 km/h12.8 1024 hPa-
26/05/2022 04:3013.1 °C91 %11.7 °C2 km/hSO14 km/h13.3 1024 hPa-
26/05/2022 04:1813.1 °C91 %11.7 °C6 km/hSO10 km/h13.3 1024 hPa-
26/05/2022 04:1513.1 °C91 %11.7 °C6 km/hSO14 km/h13.3 1024 hPa-
26/05/2022 04:0313.1 °C90 %11.7 °C3 km/hSO8 km/h13.3 1024 hPa-
26/05/2022 04:0013.2 °C90 %11.7 °C6 km/hSO14 km/h13.3 1024 hPa-
26/05/2022 03:4813.2 °C91 %11.7 °C8 km/hSO10 km/h12.8 1024 hPa-
26/05/2022 03:4513.2 °C91 %11.7 °C5 km/hSO14 km/h13.3 1024 hPa-
26/05/2022 03:3313.2 °C91 %11.7 °C5 km/hSO10 km/h13.3 1024 hPa-
26/05/2022 03:3013.2 °C91 %11.7 °C3 km/hSO14 km/h13.3 1023 hPa-
26/05/2022 03:1813.2 °C91 %11.7 °C8 km/hSO11 km/h12.8 1023 hPa-
26/05/2022 03:1513.2 °C91 %11.7 °C3 km/hSO14 km/h13.3 1023 hPa-
26/05/2022 03:0313.2 °C91 %11.7 °C3 km/hOSO13 km/h13.3 1023 hPa-
26/05/2022 03:0013.3 °C91 %11.7 °C5 km/hSO14 km/h13.3 1023 hPa-
26/05/2022 02:4813.2 °C91 %11.7 °C6 km/hSO11 km/h13.3 1023 hPa-
26/05/2022 02:4513.2 °C91 %11.7 °C5 km/hSO14 km/h13.3 1023 hPa-
26/05/2022 02:3313.3 °C91 %12.2 °C8 km/hSO10 km/h12.8 1023 hPa-
26/05/2022 02:3013.3 °C91 %12.2 °C2 km/hSO14 km/h13.3 1023 hPa-
26/05/2022 02:1813.3 °C91 %12.2 °C5 km/hSSO11 km/h13.3 1023 hPa-
26/05/2022 02:1513.3 °C91 %12.2 °C2 km/hSO14 km/h13.3 1024 hPa-
26/05/2022 02:0313.4 °C91 %12.2 °C6 km/hSO11 km/h13.3 1023 hPa-
26/05/2022 02:0013.4 °C91 %12.2 °C6 km/hSO14 km/h13.3 1023 hPa-
26/05/2022 01:4813.4 °C91 %12.2 °C6 km/hSO13 km/h13.3 1023 hPa-
26/05/2022 01:4513.4 °C91 %12.2 °C2 km/hSO14 km/h13.3 1023 hPa-
26/05/2022 01:3213.4 °C91 %12.2 °C8 km/hSO13 km/h12.8 1023 hPa-
26/05/2022 01:3013.4 °C91 %12.2 °C3 km/hSO14 km/h13.3 1023 hPa-
26/05/2022 01:1813.4 °C91 %12.2 °C5 km/hSSO13 km/h13.3 1023 hPa-
26/05/2022 01:1513.4 °C91 %12.2 °C2 km/hSO14 km/h13.3 1023 hPa-
26/05/2022 01:0313.4 °C91 %12.2 °C6 km/hSO13 km/h13.3 1023 hPa-
26/05/2022 01:0013.4 °C91 %12.2 °C2 km/hSSO14 km/h13.3 1023 hPa-
26/05/2022 00:4813.4 °C91 %12.2 °C3 km/hSO13 km/h13.3 1023 hPa-
26/05/2022 00:4513.5 °C91 %12.2 °C5 km/hSO13 km/h13.3 1023 hPa-
26/05/2022 00:3313.6 °C91 %12.2 °C5 km/hSO11 km/h13.9 1023 hPa-
26/05/2022 00:3013.7 °C91 %12.2 °C6 km/hOSO13 km/h13.9 1023 hPa-
26/05/2022 00:1813.6 °C91 %12.2 °C5 km/hSO11 km/h13.9 1023 hPa-
26/05/2022 00:1513.7 °C91 %12.2 °C10 km/hSO13 km/h13.3 1023 hPa-
26/05/2022 00:0413.8 °C90 %12.2 °C6 km/hSO13 km/h13.9 1023 hPa-
26/05/2022 00:0013.8 °C89 %12.2 °C6 km/hOSO11 km/h13.9 1023 hPa-


Minima :

Température : 12.1 °C
Humidité : 68 %
Point de rosée : 11.1 °C
Vent moyen : 2 km/h
Windchill : 11.1
Pression atm. : 1023 hPa
Maxima :

Température : 18.5 °C
Humidité : 92 %
Point de rosée : 12.2 °C
Vent moyen : 18 km/h
Windchill : 18.3
Pression atm. : 1027 hPa
Rafales max : 24 km/h
Cumul de pluie sur 24H : 0 mm

Mainvilliers est une commune du département Eure-et-Loir (28).
La station météorologique du réseau de l'association la plus proche de Mainvilliers est celle de Chaudon
Site du propriétaire de la station : http://meteo28300.fr/



Icône Facebook Association Météo Centre Icône Twitter Association Météo Centre Icône Chaîne Youtube Association Météo Centre Icône contact Association Météo Centre Icône Insta Association Météo Centre